Minot, ND

6:27 PM CST on January 28, 2015 (GMT -0600)
Minot International | Change Station
CLOSE
Current Station
Airport
Location: Minot,
Elevation: 1716 ft
Nearby Weather Stations

Elev 1716 ft 48.26 °N, 101.28 °W | Updated 33 minutes ago

Overcast
Overcast
28 °F
Feels Like 15 °F
N
18
Wind Variable Wind from NW

Today
High -- | Low -- °F
--% Chance of Precip.
Yesterday
High -- | Low -- °F
Precip. -- in
8:18 AM 5:38 PM
Waxing Gibbous, 69% visible
Pressure 30.14 in
Visibility 10.0 miles
Clouds Overcast 1200 ft
Windchill 15 °F
Dew Point 25 °F
Humidity 88%
Rainfall 0.00 in
Snow Depth Not available.
UV 0 out of 12
Pollen .10 out of 12
Air Quality Not available.
Flu Activity Not available.
METAR KMOT 282354Z 31016KT 10SM OVC012 M02/M04 A3006 RMK AO2 SLP204 I6002 T10221039 11017 21022 51038

More Conditions Fewer Conditions

Pressure 30.14 in
Visibility 10.0 miles
Clouds Overcast 1200 ft
Windchill 15 °F
Dew Point 25 °F
Humidity 88%
Rainfall 0.00 in
Snow Depth Not available.
UV 0 out of 12
Pollen .10 out of 12
Air Quality Not available.
Flu Activity Not available.
METAR KMOT 282354Z 31016KT 10SM OVC012 M02/M04 A3006 RMK AO2 SLP204 I6002 T10221039 11017 21022 51038

More Conditions Fewer Conditions

10-Day Weather Forecast

Almanac

Astronomy

Jan. 28, 2015 Rise Set
Actual Time
Civil Twilight
Nautical Twilight
Astronomical Twilight
Moon
Length of Visible Light
Length of Day
Tomorrow will be .
, % of the Moon is Illuminated

Today's Extremes

State Highs State Lows

Community

WunderPhotos

Upload Photos

1,791,306 photos uploaded!

WunderBlogs® & News

Nearby

Air Quality

  Air Quality AQ Index Pollutant
Not available.

Snow Depth

Station Depth Elevation

Earthquake Activity

City Distance Mag. Time & Date
Minimum magnitude displayed is 2.5.

Coastal Water Temperatures

Place Temperature

Nearby Weather Stations